Ro Fjord — LFEI — position and weather

sailwx.info

Track history (hours):
 
Tides and Currents Weather Stations Pressure Air Temp Water Temp Dewpoint Dewpoint Depression Visibility Wind Speed Wind Dir Waves Ship Positions

Ro Fjord

Last reported at 2017-Nov-23 19:00 UTC. Time now 2017-Nov-23 22:24 UTC.
Position N 61°54' E 005°38'.

Length 72 m; draft 6.4 m.

Type: Ship. MMSI: 257430000.

Date/timePositionNaut miles runAvg speedWind from/ knotsBaromVisibWave heightAir tempDewpointWater temp
2017-Nov-23 19:00N 61°54' E 005°38'0 0.0
2017-Nov-23 18:27N 61°54' E 005°38'0 0.0
2017-Nov-23 18:00N 61°54' E 005°38'0 0.0
2017-Nov-23 17:30N 61°54' E 005°38'1 1.2
2017-Nov-23 17:00N 61°54' E 005°39'0 0.5
2017-Nov-23 16:30N 61°54' E 005°39'0 0.3
2017-Nov-23 16:00N 61°54' E 005°38'0 0.4
2017-Nov-23 15:30N 61°54' E 005°38'0 0.7
2017-Nov-23 14:59N 61°54' E 005°38'0 0.0
2017-Nov-23 14:30N 61°54' E 005°38'0 0.0
2017-Nov-23 14:00N 61°54' E 005°38'0 0.0
2017-Nov-23 13:30N 61°54' E 005°38'0 0.0
2017-Nov-23 13:00N 61°54' E 005°38'0 0.0
2017-Nov-23 12:30N 61°54' E 005°38'0 0.2
2017-Nov-23 12:00N 61°54' E 005°38'0 0.4
2017-Nov-23 11:30N 61°54' E 005°38'0 0.1
2017-Nov-23 11:00N 61°54' E 005°38'0 0.2
2017-Nov-23 10:30N 61°54' E 005°38'0 0.4
2017-Nov-23 10:00N 61°54' E 005°39'0 1.0
2017-Nov-23 09:30N 61°54' E 005°38'0 0.5
2017-Nov-23 09:00N 61°54' E 005°38'0 0.2
2017-Nov-23 08:30N 61°54' E 005°38'2 3.0
2017-Nov-23 08:00N 61°54' E 005°34'3 6.5
2017-Nov-23 07:30N 61°55' E 005°28'3 6.7
2017-Nov-23 07:00N 61°54' E 005°21'4 7.0
2017-Nov-23 06:30N 61°54' E 005°13'3 6.8
2017-Nov-23 06:00N 61°55' E 005°07'0 1.0
2017-Nov-23 05:30N 61°56' E 005°07'0 0.0
2017-Nov-23 05:00N 61°56' E 005°07'0 0.0
2017-Nov-23 04:30N 61°56' E 005°07'0 0.0
2017-Nov-23 04:00N 61°56' E 005°07'0 0.0
2017-Nov-23 03:30N 61°56' E 005°07'0 0.0
2017-Nov-23 03:00N 61°56' E 005°07'0 0.0
2017-Nov-23 02:30N 61°56' E 005°07'0 0.0
2017-Nov-23 02:00N 61°56' E 005°07'0 0.0
2017-Nov-23 01:30N 61°56' E 005°07'0 0.0
2017-Nov-23 01:00N 61°56' E 005°07'0 0.0
2017-Nov-23 00:30N 61°56' E 005°07'0 0.0
2017-Nov-23 00:00N 61°56' E 005°07'0 0.0
2017-Nov-22 23:30N 61°56' E 005°07'0 0.0
2017-Nov-22 23:00N 61°56' E 005°07'0 0.0
2017-Nov-22 22:30N 61°56' E 005°07'0 0.0
2017-Nov-22 22:00N 61°56' E 005°07'0 0.0
2017-Nov-22 21:29N 61°56' E 005°07'0 0.0
2017-Nov-22 21:00N 61°56' E 005°07'0 0.0
2017-Nov-22 20:30N 61°56' E 005°07'0 0.7
2017-Nov-22 20:00N 61°56' E 005°07'4 8.8
2017-Nov-22 19:30N 62°00' E 005°09'  
2017-Nov-20 00:30N 62°19' E 005°39'0 0.0
2017-Nov-20 00:00N 62°19' E 005°39'3 6.5
2017-Nov-19 23:30N 62°18' E 005°33'5 9.6
2017-Nov-19 22:59N 62°17' E 005°23'5 9.4
2017-Nov-19 22:30N 62°15' E 005°14'5 9.2
2017-Nov-19 22:00N 62°12' E 005°06'4 8.4
2017-Nov-19 21:30N 62°08' E 005°05'5 9.5
2017-Nov-19 21:00N 62°03' E 005°08'5 9.9
2017-Nov-19 20:30N 61°58' E 005°09'5 9.4
2017-Nov-19 20:00N 61°54' E 005°09'5 9.1
2017-Nov-19 19:30N 61°50' E 005°16'5 9.6
2017-Nov-19 19:00N 61°48' E 005°07'3 5.6
2017-Nov-19 18:30N 61°45' E 005°04'0 0.0
2017-Nov-19 18:00N 61°45' E 005°04'0 0.0
2017-Nov-19 17:30N 61°45' E 005°04'0 0.5
2017-Nov-19 17:00N 61°46' E 005°04'4 8.0
2017-Nov-19 16:29N 61°43' E 004°58'611.5
2017-Nov-19 16:00N 61°37' E 004°59'2 3.8
2017-Nov-19 15:30N 61°36' E 005°02'0 0.0
2017-Nov-19 15:00N 61°36' E 005°02'0 0.0
2017-Nov-19 14:29N 61°36' E 005°02'0 0.0
2017-Nov-19 14:00N 61°36' E 005°02'0 0.3
2017-Nov-19 13:30N 61°36' E 005°02'0 0.0
2017-Nov-19 13:00N 61°36' E 005°02'0 0.0
2017-Nov-19 12:30N 61°36' E 005°02'0 0.0
2017-Nov-19 12:00N 61°36' E 005°02'1 1.9
2017-Nov-19 11:30N 61°36' E 005°00'4 8.5
2017-Nov-19 11:00N 61°38' E 004°52'0 0.1
2017-Nov-19 10:30N 61°38' E 004°52'0 0.3
2017-Nov-19 10:00N 61°38' E 004°52'0 0.8
2017-Nov-19 09:30N 61°38' E 004°52'3 7.1
2017-Nov-19 09:00N 61°37' E 004°59'510.3
2017-Nov-19 08:30N 61°42' E 004°58'510.7
2017-Nov-19 08:00N 61°47' E 005°04'510.7
2017-Nov-19 07:30N 61°50' E 005°14'3 6.4
2017-Nov-19 07:00N 61°53' E 005°11'4 8.4
2017-Nov-19 06:30N 61°57' E 005°08'5 9.9
2017-Nov-19 06:00N 62°02' E 005°09'510.2
2017-Nov-19 05:30N 62°06' E 005°06'5 9.5
2017-Nov-19 05:00N 62°11' E 005°05'5 9.4
2017-Nov-19 04:30N 62°14' E 005°12'5 9.5
2017-Nov-19 04:00N 62°17' E 005°21'510.1
2017-Nov-19 03:30N 62°18' E 005°31'4 8.9
2017-Nov-19 03:00N 62°19' E 005°40'0 0.0
2017-Nov-19 02:30N 62°19' E 005°40'0 0.0
2017-Nov-19 02:00N 62°19' E 005°40'0 0.0
2017-Nov-19 01:30N 62°19' E 005°40'0 0.0
2017-Nov-19 01:00N 62°19' E 005°40'0 0.0
2017-Nov-19 00:30N 62°19' E 005°40'0 0.0
2017-Nov-19 00:00N 62°19' E 005°40'0 0.0
2017-Nov-18 23:30N 62°19' E 005°40'0 0.0
2017-Nov-18 23:00N 62°19' E 005°40'0 0.0
2017-Nov-18 22:30N 62°19' E 005°40'0 0.0
2017-Nov-18 22:00N 62°19' E 005°40'0 0.0
2017-Nov-18 21:30N 62°19' E 005°40'1 1.0
2017-Nov-18 21:00N 62°19' E 005°39'0 0.0
2017-Nov-18 20:30N 62°19' E 005°39'3 6.8
2017-Nov-18 20:00N 62°18' E 005°33'5 9.3
2017-Nov-18 19:30N 62°13' E 005°31'5 9.2
2017-Nov-18 19:00N 62°10' E 005°24'3 5.2
2017-Nov-18 18:29N 62°07' E 005°25'0 0.0
2017-Nov-18 18:00N 62°07' E 005°25'0 0.0
2017-Nov-18 17:30N 62°07' E 005°25'2 3.2
2017-Nov-18 17:00N 62°08' E 005°22'610.8
2017-Nov-18 16:30N 62°12' E 005°30'510.4
2017-Nov-18 16:00N 62°17' E 005°32'4 7.9
2017-Nov-18 15:30N 62°19' E 005°39'0 0.0
2017-Nov-18 15:00N 62°19' E 005°39'0 0.1
2017-Nov-18 14:30N 62°19' E 005°39'4 7.5
2017-Nov-18 14:00N 62°17' E 005°32'510.3
2017-Nov-18 13:30N 62°12' E 005°30'5 9.8
2017-Nov-18 13:00N 62°09' E 005°23'2 4.4
2017-Nov-18 12:30N 62°07' E 005°25'0 0.0
2017-Nov-18 12:00N 62°07' E 005°25'0 0.0
2017-Nov-18 11:30N 62°07' E 005°25'0 0.0
2017-Nov-18 10:59N 62°07' E 005°25'0 0.0
2017-Nov-18 10:29N 62°07' E 005°25'2 3.1
2017-Nov-18 10:00N 62°08' E 005°22'510.4
2017-Nov-18 09:30N 62°12' E 005°29'5 9.8
2017-Nov-18 09:00N 62°17' E 005°32'510.5
2017-Nov-18 08:30N 62°19' E 005°42'5 9.3
2017-Nov-18 08:00N 62°23' E 005°48'5 9.8
2017-Nov-18 07:30N 62°26' E 005°56'5 9.7
2017-Nov-18 07:00N 62°28' E 006°05'1 2.4
2017-Nov-18 06:31N 62°28' E 006°08'5 9.6
2017-Nov-18 06:00N 62°33' E 006°10'510.5
2017-Nov-18 05:30N 62°37' E 006°18'510.6
2017-Nov-18 04:59N 62°40' E 006°27'510.9
2017-Nov-18 04:30N 62°44' E 006°35'5 9.9
2017-Nov-18 04:00N 62°48' E 006°41'4 7.5
2017-Nov-18 03:31N 62°51' E 006°47'0 0.3
2017-Nov-18 03:00N 62°51' E 006°47'0 0.0
2017-Nov-18 02:30N 62°51' E 006°47'3 6.3
2017-Nov-18 02:01N 62°49' E 006°41'5 8.9
2017-Nov-18 01:30N 62°45' E 006°47'6 8.6
2017-Nov-18 00:50N 62°43' E 006°58'310.2
2017-Nov-18 00:30N 62°41' E 007°04'5 9.2
2017-Nov-18 00:00N 62°38' E 007°11'0 0.0
2017-Nov-17 23:30N 62°38' E 007°11'0 0.0
2017-Nov-17 23:00N 62°38' E 007°11'3 6.7
2017-Nov-17 22:30N 62°40' E 007°06'611.5
2017-Nov-17 22:00N 62°40' E 006°53'611.9
2017-Nov-17 21:30N 62°39' E 006°40'612.5
2017-Nov-17 21:00N 62°38' E 006°27'611.6
2017-Nov-17 20:30N 62°35' E 006°15'611.4
2017-Nov-17 20:00N 62°31' E 006°09'611.0
2017-Nov-17 19:30N 62°27' E 005°60'612.0
2017-Nov-17 19:00N 62°24' E 005°49'510.4
2017-Nov-17 18:30N 62°19' E 005°43'2 3.7
2017-Nov-17 18:00N 62°19' E 005°39'0 0.0
2017-Nov-17 17:30N 62°19' E 005°39'1 2.6
2017-Nov-17 17:00N 62°19' E 005°37'4 8.7
2017-Nov-17 16:30N 62°15' E 005°31'4 8.7
2017-Nov-17 16:00N 62°11' E 005°26'4 8.7
2017-Nov-17 15:30N 62°07' E 005°23'1 2.0
2017-Nov-17 15:00N 62°07' E 005°25'0 0.0
2017-Nov-17 14:30N 62°07' E 005°25'0 0.0
2017-Nov-17 14:00N 62°07' E 005°25'0 0.0
2017-Nov-17 13:30N 62°07' E 005°25'0 0.3
2017-Nov-17 13:00N 62°07' E 005°25'4 7.5
2017-Nov-17 12:30N 62°11' E 005°25'4 8.9
2017-Nov-17 12:00N 62°12' E 005°34'0 0.0
2017-Nov-17 11:30N 62°12' E 005°34'0 0.0
2017-Nov-17 11:00N 62°12' E 005°34'0 0.0
2017-Nov-17 10:30N 62°12' E 005°34'0 0.0
2017-Nov-17 10:00N 62°12' E 005°34'0 0.0
2017-Nov-17 09:30N 62°12' E 005°34'0 0.0
2017-Nov-17 09:00N 62°12' E 005°34'0 0.0
2017-Nov-17 08:30N 62°12' E 005°34'0 0.0
2017-Nov-17 08:00N 62°12' E 005°34'0 0.0
2017-Nov-17 07:30N 62°12' E 005°34'0 0.0
2017-Nov-17 07:00N 62°12' E 005°34'0 0.0
2017-Nov-17 06:30N 62°12' E 005°34'0 0.0
2017-Nov-17 06:00N 62°12' E 005°34'0 0.0
2017-Nov-17 05:29N 62°12' E 005°34'0 0.0
2017-Nov-17 05:00N 62°12' E 005°34'0 0.0
2017-Nov-17 04:30N 62°12' E 005°34'0 0.0
2017-Nov-17 04:00N 62°12' E 005°34'0 0.0
2017-Nov-17 03:29N 62°12' E 005°34'0 0.0
2017-Nov-17 03:00N 62°12' E 005°34'0 0.0
2017-Nov-17 02:30N 62°12' E 005°34'0 0.0
2017-Nov-17 02:00N 62°12' E 005°34'0 0.0
2017-Nov-17 01:30N 62°12' E 005°34'0 0.0
2017-Nov-17 01:00N 62°12' E 005°34'0 0.0
2017-Nov-17 00:30N 62°12' E 005°34'0 0.0
2017-Nov-17 00:00N 62°12' E 005°34'0 0.0
2017-Nov-16 23:30N 62°12' E 005°34'0 0.0
2017-Nov-16 22:59N 62°12' E 005°34'0 0.0
2017-Nov-16 22:30N 62°12' E 005°34'2 4.7
2017-Nov-16 22:00N 62°11' E 005°39'510.5
2017-Nov-16 21:30N 62°12' E 005°50'510.0
2017-Nov-16 21:00N 62°16' E 005°57'510.1
2017-Nov-16 20:30N 62°20' E 006°05'5 9.2
2017-Nov-16 20:00N 62°24' E 006°03'5 9.2
2017-Nov-16 19:30N 62°28' E 006°05'5 9.1
2017-Nov-16 19:00N 62°29' E 006°15'0 0.0
2017-Nov-16 18:30N 62°29' E 006°15'0 0.0
2017-Nov-16 18:00N 62°29' E 006°15'0 0.0
2017-Nov-16 17:30N 62°29' E 006°15'2 3.6
2017-Nov-16 17:00N 62°29' E 006°12'4 8.5
2017-Nov-16 16:30N 62°33' E 006°10'510.1
2017-Nov-16 16:00N 62°37' E 006°18'510.0
2017-Nov-16 15:30N 62°40' E 006°26'5 9.9
2017-Nov-16 15:00N 62°43' E 006°35'5 9.2
2017-Nov-16 14:30N 62°45' E 006°45'0 1.0
2017-Nov-16 14:00N 62°44' E 006°45'0 0.0
2017-Nov-16 13:30N 62°44' E 006°45'4 7.7
2017-Nov-16 13:00N 62°48' E 006°41'4 8.3
2017-Nov-16 12:31N 62°51' E 006°47'0 0.4
2017-Nov-16 12:00N 62°51' E 006°47'2 5.0
2017-Nov-16 11:30N 62°49' E 006°42'2 3.7
2017-Nov-16 11:00N 62°48' E 006°40'0 0.0
2017-Nov-16 10:30N 62°48' E 006°40'0 0.2
2017-Nov-16 10:00N 62°48' E 006°41'510.2
2017-Nov-16 09:30N 62°44' E 006°34'611.9
2017-Nov-16 09:00N 62°39' E 006°25'612.0
2017-Nov-16 08:30N 62°35' E 006°15'611.7
2017-Nov-16 08:00N 62°30' E 006°09'611.3
2017-Nov-16 07:29N 62°27' E 005°59'611.4
2017-Nov-16 07:00N 62°24' E 005°49'510.5
2017-Nov-16 06:30N 62°19' E 005°43'2 3.2
2017-Nov-16 06:00N 62°19' E 005°39'0 0.0
2017-Nov-16 05:30N 62°19' E 005°39'0 1.0
2017-Nov-16 05:00N 62°19' E 005°39'5 9.7
2017-Nov-16 04:30N 62°16' E 005°31'510.1
2017-Nov-16 04:00N 62°11' E 005°35'510.4
2017-Nov-16 03:30N 62°12' E 005°46'1 1.5
2017-Nov-16 03:00N 62°13' E 005°47'0 0.0
2017-Nov-16 02:30N 62°13' E 005°47'0 0.0
2017-Nov-16 02:00N 62°13' E 005°47'0 0.0
2017-Nov-16 01:30N 62°13' E 005°47'0 0.0
2017-Nov-16 01:00N 62°12' E 005°47'1 1.8
2017-Nov-16 00:29N 62°12' E 005°45'511.0
2017-Nov-16 00:00N 62°11' E 005°34'510.2
2017-Nov-15 23:30N 62°16' E 005°31'510.0
2017-Nov-15 23:00N 62°19' E 005°39'0 0.6
2017-Nov-15 22:30N 62°19' E 005°39'0 0.0
2017-Nov-15 22:00N 62°19' E 005°39'0 0.8
2017-Nov-15 21:30N 62°19' E 005°39'5 9.7
2017-Nov-15 21:00N 62°16' E 005°31'5 9.7
2017-Nov-15 20:30N 62°11' E 005°34'5 9.7
2017-Nov-15 20:00N 62°12' E 005°44'1 2.8
2017-Nov-15 19:30N 62°13' E 005°47'0 0.0
2017-Nov-15 19:00N 62°13' E 005°47'0 0.0
2017-Nov-15 18:30N 62°13' E 005°47'0 0.0
2017-Nov-15 18:00N 62°13' E 005°47'0 0.0
2017-Nov-15 17:30N 62°13' E 005°47'0 0.7
2017-Nov-15 16:59N 62°13' E 005°48'0 0.9
2017-Nov-15 16:30N 62°12' E 005°49'0 0.2
2017-Nov-15 16:00N 62°12' E 005°49'1 2.1
2017-Nov-15 15:30N 62°13' E 005°51'3 6.0
2017-Nov-15 15:00N 62°14' E 005°56'3 6.8
2017-Nov-15 14:30N 62°17' E 006°01'3 5.4
2017-Nov-15 14:00N 62°18' E 006°05'0 0.0
2017-Nov-15 13:29N 62°18' E 006°06'2 3.4
2017-Nov-15 13:00N 62°18' E 006°02'2 3.2
2017-Nov-15 12:30N 62°16' E 006°00'0 0.0
2017-Nov-15 12:00N 62°16' E 006°00'4 8.1
2017-Nov-15 11:30N 62°20' E 006°05'510.1
2017-Nov-15 11:00N 62°25' E 006°03'4 9.0
2017-Nov-15 10:30N 62°29' E 006°08'4 6.9
2017-Nov-15 10:00N 62°32' E 006°09'510.5
2017-Nov-15 09:30N 62°36' E 006°17'5 9.5
2017-Nov-15 09:00N 62°39' E 006°24'510.2
2017-Nov-15 08:29N 62°44' E 006°31'510.3
2017-Nov-15 08:00N 62°48' E 006°37'5 9.7
2017-Nov-15 07:30N 62°51' E 006°45'1 1.3
2017-Nov-15 07:00N 62°51' E 006°47'0 0.0
2017-Nov-15 06:30N 62°51' E 006°47'1 2.6
2017-Nov-15 06:00N 62°50' E 006°44'4 7.9
2017-Nov-15 05:30N 62°46' E 006°42'4 8.4
2017-Nov-15 04:59N 62°46' E 006°52'4 8.3
2017-Nov-15 04:30N 62°43' E 006°59'5 9.1
2017-Nov-15 04:00N 62°44' E 007°09'2 3.1
2017-Nov-15 03:30N 62°43' E 007°06'3 6.5
2017-Nov-15 03:00N 62°40' E 007°09'3 5.1
2017-Nov-15 02:30N 62°38' E 007°11'0 0.0
2017-Nov-15 02:00N 62°38' E 007°11'0 0.0
2017-Nov-15 01:30N 62°38' E 007°11'1 2.6
2017-Nov-15 01:00N 62°39' E 007°10'510.9
2017-Nov-15 00:30N 62°40' E 006°58'611.8
2017-Nov-15 00:00N 62°40' E 006°46'611.5
2017-Nov-14 23:29N 62°38' E 006°33'611.3
2017-Nov-14 22:59N 62°37' E 006°21'510.9
2017-Nov-14 22:30N 62°34' E 006°12'611.4
2017-Nov-14 22:00N 62°29' E 006°06'612.1
2017-Nov-14 21:30N 62°26' E 005°55'611.4
2017-Nov-14 21:00N 62°22' E 005°47'4 8.4
2017-Nov-14 20:30N 62°19' E 005°39'0 0.1
2017-Nov-14 20:00N 62°19' E 005°39'0 0.0
2017-Nov-14 19:30N 62°19' E 005°39'0 0.0
2017-Nov-14 19:00N 62°19' E 005°39'0 0.7
2017-Nov-14 18:31N 62°19' E 005°40'5 9.4
2017-Nov-14 18:00N 62°17' E 005°31'5 9.5
2017-Nov-14 17:30N 62°12' E 005°33'5 9.0
2017-Nov-14 17:00N 62°12' E 005°43'2 4.5
2017-Nov-14 16:30N 62°12' E 005°47'0 0.0
2017-Nov-14 16:00N 62°13' E 005°47'0 0.0
2017-Nov-14 15:30N 62°13' E 005°47'0 0.0
2017-Nov-14 15:00N 62°13' E 005°47'2 4.0
2017-Nov-14 14:30N 62°12' E 005°43'4 8.8
2017-Nov-14 14:00N 62°11' E 005°34'5 9.1
2017-Nov-14 13:30N 62°16' E 005°31'4 8.9
2017-Nov-14 13:00N 62°19' E 005°38'1 2.0
2017-Nov-14 12:30N 62°19' E 005°39'0 0.0
2017-Nov-14 12:00N 62°19' E 005°39'0 0.0
2017-Nov-14 11:30N 62°19' E 005°39'0 0.0
2017-Nov-14 11:00N 62°19' E 005°39'0 0.0
2017-Nov-14 10:30N 62°19' E 005°39'0 0.0
2017-Nov-14 10:00N 62°19' E 005°39'0 0.0
2017-Nov-14 09:30N 62°19' E 005°39'0 0.0
2017-Nov-14 09:00N 62°19' E 005°39'0 0.0
2017-Nov-14 08:30N 62°19' E 005°39'0 0.0
2017-Nov-14 08:00N 62°19' E 005°39'0 0.0
2017-Nov-14 07:30N 62°19' E 005°39'0 0.0
2017-Nov-14 07:00N 62°19' E 005°39'0 0.0
2017-Nov-14 06:30N 62°19' E 005°39'0 0.0
2017-Nov-14 06:00N 62°19' E 005°39'0 0.0
2017-Nov-14 05:30N 62°19' E 005°39'0 0.0
2017-Nov-14 05:00N 62°19' E 005°39'0 0.0
2017-Nov-14 04:30N 62°19' E 005°39'0 0.0
2017-Nov-14 04:00N 62°19' E 005°39'0 0.0
2017-Nov-14 03:30N 62°19' E 005°39'0 0.0
2017-Nov-14 03:00N 62°19' E 005°39'0 0.0
2017-Nov-14 02:30N 62°19' E 005°39'0 0.0
2017-Nov-14 02:00N 62°19' E 005°39'0 0.0
2017-Nov-14 01:30N 62°19' E 005°39'2 3.8
2017-Nov-14 01:00N 62°18' E 005°36'5 9.7
2017-Nov-14 00:30N 62°17' E 005°25'5 9.4
2017-Nov-14 00:00N 62°16' E 005°16'5 9.7
2017-Nov-13 23:30N 62°13' E 005°08'4 8.7
2017-Nov-13 23:00N 62°08' E 005°05'510.0
2017-Nov-13 22:29N 62°04' E 005°08'5 9.9
2017-Nov-13 22:00N 61°59' E 005°09'  
Track history (hours):
 
Tides and Currents Weather Stations Pressure Air Temp Water Temp Dewpoint Dewpoint Depression Visibility Wind Speed Wind Dir Waves Ship Positions

Ro Fjord

Last reported at 2017-Nov-23 19:00 UTC. Time now 2017-Nov-23 22:24 UTC.
Position N 61°54' E 005°38'.

Length 72 m; draft 6.4 m.

Type: Ship. MMSI: 257430000.

Date/timePositionNaut miles runAvg speedWind from/ knotsBaromVisibWave heightAir tempDewpointWater temp
2017-Nov-23 19:00N 61°54' E 005°38'0 0.0
2017-Nov-23 18:27N 61°54' E 005°38'0 0.0
2017-Nov-23 18:00N 61°54' E 005°38'0 0.0
2017-Nov-23 17:30N 61°54' E 005°38'1 1.2
2017-Nov-23 17:00N 61°54' E 005°39'0 0.5
2017-Nov-23 16:30N 61°54' E 005°39'0 0.3
2017-Nov-23 16:00N 61°54' E 005°38'0 0.4
2017-Nov-23 15:30N 61°54' E 005°38'0 0.7
2017-Nov-23 14:59N 61°54' E 005°38'0 0.0
2017-Nov-23 14:30N 61°54' E 005°38'0 0.0
2017-Nov-23 14:00N 61°54' E 005°38'0 0.0
2017-Nov-23 13:30N 61°54' E 005°38'0 0.0
2017-Nov-23 13:00N 61°54' E 005°38'0 0.0
2017-Nov-23 12:30N 61°54' E 005°38'0 0.2
2017-Nov-23 12:00N 61°54' E 005°38'0 0.4
2017-Nov-23 11:30N 61°54' E 005°38'0 0.1
2017-Nov-23 11:00N 61°54' E 005°38'0 0.2
2017-Nov-23 10:30N 61°54' E 005°38'0 0.4
2017-Nov-23 10:00N 61°54' E 005°39'0 1.0
2017-Nov-23 09:30N 61°54' E 005°38'0 0.5
2017-Nov-23 09:00N 61°54' E 005°38'0 0.2
2017-Nov-23 08:30N 61°54' E 005°38'2 3.0
2017-Nov-23 08:00N 61°54' E 005°34'3 6.5
2017-Nov-23 07:30N 61°55' E 005°28'3 6.7
2017-Nov-23 07:00N 61°54' E 005°21'4 7.0
2017-Nov-23 06:30N 61°54' E 005°13'3 6.8
2017-Nov-23 06:00N 61°55' E 005°07'0 1.0
2017-Nov-23 05:30N 61°56' E 005°07'0 0.0
2017-Nov-23 05:00N 61°56' E 005°07'0 0.0
2017-Nov-23 04:30N 61°56' E 005°07'0 0.0
2017-Nov-23 04:00N 61°56' E 005°07'0 0.0
2017-Nov-23 03:30N 61°56' E 005°07'0 0.0
2017-Nov-23 03:00N 61°56' E 005°07'0 0.0
2017-Nov-23 02:30N 61°56' E 005°07'0 0.0
2017-Nov-23 02:00N 61°56' E 005°07'0 0.0
2017-Nov-23 01:30N 61°56' E 005°07'0 0.0
2017-Nov-23 01:00N 61°56' E 005°07'0 0.0
2017-Nov-23 00:30N 61°56' E 005°07'0 0.0
2017-Nov-23 00:00N 61°56' E 005°07'0 0.0
2017-Nov-22 23:30N 61°56' E 005°07'0 0.0
2017-Nov-22 23:00N 61°56' E 005°07'0 0.0
2017-Nov-22 22:30N 61°56' E 005°07'0 0.0
2017-Nov-22 22:00N 61°56' E 005°07'0 0.0
2017-Nov-22 21:29N 61°56' E 005°07'0 0.0
2017-Nov-22 21:00N 61°56' E 005°07'0 0.0
2017-Nov-22 20:30N 61°56' E 005°07'0 0.7
2017-Nov-22 20:00N 61°56' E 005°07'4 8.8
2017-Nov-22 19:30N 62°00' E 005°09'  
2017-Nov-20 00:30N 62°19' E 005°39'0 0.0
2017-Nov-20 00:00N 62°19' E 005°39'3 6.5
2017-Nov-19 23:30N 62°18' E 005°33'5 9.6
2017-Nov-19 22:59N 62°17' E 005°23'5 9.4
2017-Nov-19 22:30N 62°15' E 005°14'5 9.2
2017-Nov-19 22:00N 62°12' E 005°06'4 8.4
2017-Nov-19 21:30N 62°08' E 005°05'5 9.5
2017-Nov-19 21:00N 62°03' E 005°08'5 9.9
2017-Nov-19 20:30N 61°58' E 005°09'5 9.4
2017-Nov-19 20:00N 61°54' E 005°09'5 9.1
2017-Nov-19 19:30N 61°50' E 005°16'5 9.6
2017-Nov-19 19:00N 61°48' E 005°07'3 5.6
2017-Nov-19 18:30N 61°45' E 005°04'0 0.0
2017-Nov-19 18:00N 61°45' E 005°04'0 0.0
2017-Nov-19 17:30N 61°45' E 005°04'0 0.5
2017-Nov-19 17:00N 61°46' E 005°04'4 8.0
2017-Nov-19 16:29N 61°43' E 004°58'611.5
2017-Nov-19 16:00N 61°37' E 004°59'2 3.8
2017-Nov-19 15:30N 61°36' E 005°02'0 0.0
2017-Nov-19 15:00N 61°36' E 005°02'0 0.0
2017-Nov-19 14:29N 61°36' E 005°02'0 0.0
2017-Nov-19 14:00N 61°36' E 005°02'0 0.3
2017-Nov-19 13:30N 61°36' E 005°02'0 0.0
2017-Nov-19 13:00N 61°36' E 005°02'0 0.0
2017-Nov-19 12:30N 61°36' E 005°02'0 0.0
2017-Nov-19 12:00N 61°36' E 005°02'1 1.9
2017-Nov-19 11:30N 61°36' E 005°00'4 8.5
2017-Nov-19 11:00N 61°38' E 004°52'0 0.1
2017-Nov-19 10:30N 61°38' E 004°52'0 0.3
2017-Nov-19 10:00N 61°38' E 004°52'0 0.8
2017-Nov-19 09:30N 61°38' E 004°52'3 7.1
2017-Nov-19 09:00N 61°37' E 004°59'510.3
2017-Nov-19 08:30N 61°42' E 004°58'510.7
2017-Nov-19 08:00N 61°47' E 005°04'510.7
2017-Nov-19 07:30N 61°50' E 005°14'3 6.4
2017-Nov-19 07:00N 61°53' E 005°11'4 8.4
2017-Nov-19 06:30N 61°57' E 005°08'5 9.9
2017-Nov-19 06:00N 62°02' E 005°09'510.2
2017-Nov-19 05:30N 62°06' E 005°06'5 9.5
2017-Nov-19 05:00N 62°11' E 005°05'5 9.4
2017-Nov-19 04:30N 62°14' E 005°12'5 9.5
2017-Nov-19 04:00N 62°17' E 005°21'510.1
2017-Nov-19 03:30N 62°18' E 005°31'4 8.9
2017-Nov-19 03:00N 62°19' E 005°40'0 0.0
2017-Nov-19 02:30N 62°19' E 005°40'0 0.0
2017-Nov-19 02:00N 62°19' E 005°40'0 0.0
2017-Nov-19 01:30N 62°19' E 005°40'0 0.0
2017-Nov-19 01:00N 62°19' E 005°40'0 0.0
2017-Nov-19 00:30N 62°19' E 005°40'0 0.0
2017-Nov-19 00:00N 62°19' E 005°40'0 0.0
2017-Nov-18 23:30N 62°19' E 005°40'0 0.0
2017-Nov-18 23:00N 62°19' E 005°40'0 0.0
2017-Nov-18 22:30N 62°19' E 005°40'0 0.0
2017-Nov-18 22:00N 62°19' E 005°40'0 0.0
2017-Nov-18 21:30N 62°19' E 005°40'1 1.0
2017-Nov-18 21:00N 62°19' E 005°39'0 0.0
2017-Nov-18 20:30N 62°19' E 005°39'3 6.8
2017-Nov-18 20:00N 62°18' E 005°33'5 9.3
2017-Nov-18 19:30N 62°13' E 005°31'5 9.2
2017-Nov-18 19:00N 62°10' E 005°24'3 5.2
2017-Nov-18 18:29N 62°07' E 005°25'0 0.0
2017-Nov-18 18:00N 62°07' E 005°25'0 0.0
2017-Nov-18 17:30N 62°07' E 005°25'2 3.2
2017-Nov-18 17:00N 62°08' E 005°22'610.8
2017-Nov-18 16:30N 62°12' E 005°30'510.4
2017-Nov-18 16:00N 62°17' E 005°32'4 7.9
2017-Nov-18 15:30N 62°19' E 005°39'0 0.0
2017-Nov-18 15:00N 62°19' E 005°39'0 0.1
2017-Nov-18 14:30N 62°19' E 005°39'4 7.5
2017-Nov-18 14:00N 62°17' E 005°32'510.3
2017-Nov-18 13:30N 62°12' E 005°30'5 9.8
2017-Nov-18 13:00N 62°09' E 005°23'2 4.4
2017-Nov-18 12:30N 62°07' E 005°25'0 0.0
2017-Nov-18 12:00N 62°07' E 005°25'0 0.0
2017-Nov-18 11:30N 62°07' E 005°25'0 0.0
2017-Nov-18 10:59N 62°07' E 005°25'0 0.0
2017-Nov-18 10:29N 62°07' E 005°25'2 3.1
2017-Nov-18 10:00N 62°08' E 005°22'510.4
2017-Nov-18 09:30N 62°12' E 005°29'5 9.8
2017-Nov-18 09:00N 62°17' E 005°32'510.5
2017-Nov-18 08:30N 62°19' E 005°42'5 9.3
2017-Nov-18 08:00N 62°23' E 005°48'5 9.8
2017-Nov-18 07:30N 62°26' E 005°56'5 9.7
2017-Nov-18 07:00N 62°28' E 006°05'1 2.4
2017-Nov-18 06:31N 62°28' E 006°08'5 9.6
2017-Nov-18 06:00N 62°33' E 006°10'510.5
2017-Nov-18 05:30N 62°37' E 006°18'510.6
2017-Nov-18 04:59N 62°40' E 006°27'510.9
2017-Nov-18 04:30N 62°44' E 006°35'5 9.9
2017-Nov-18 04:00N 62°48' E 006°41'4 7.5
2017-Nov-18 03:31N 62°51' E 006°47'0 0.3
2017-Nov-18 03:00N 62°51' E 006°47'0 0.0
2017-Nov-18 02:30N 62°51' E 006°47'3 6.3
2017-Nov-18 02:01N 62°49' E 006°41'5 8.9
2017-Nov-18 01:30N 62°45' E 006°47'6 8.6
2017-Nov-18 00:50N 62°43' E 006°58'310.2
2017-Nov-18 00:30N 62°41' E 007°04'5 9.2
2017-Nov-18 00:00N 62°38' E 007°11'0 0.0
2017-Nov-17 23:30N 62°38' E 007°11'0 0.0
2017-Nov-17 23:00N 62°38' E 007°11'3 6.7
2017-Nov-17 22:30N 62°40' E 007°06'611.5
2017-Nov-17 22:00N 62°40' E 006°53'611.9
2017-Nov-17 21:30N 62°39' E 006°40'612.5
2017-Nov-17 21:00N 62°38' E 006°27'611.6
2017-Nov-17 20:30N 62°35' E 006°15'611.4
2017-Nov-17 20:00N 62°31' E 006°09'611.0
2017-Nov-17 19:30N 62°27' E 005°60'612.0
2017-Nov-17 19:00N 62°24' E 005°49'510.4
2017-Nov-17 18:30N 62°19' E 005°43'2 3.7
2017-Nov-17 18:00N 62°19' E 005°39'0 0.0
2017-Nov-17 17:30N 62°19' E 005°39'1 2.6
2017-Nov-17 17:00N 62°19' E 005°37'4 8.7
2017-Nov-17 16:30N 62°15' E 005°31'4 8.7
2017-Nov-17 16:00N 62°11' E 005°26'4 8.7
2017-Nov-17 15:30N 62°07' E 005°23'1 2.0
2017-Nov-17 15:00N 62°07' E 005°25'0 0.0
2017-Nov-17 14:30N 62°07' E 005°25'0 0.0
2017-Nov-17 14:00N 62°07' E 005°25'0 0.0
2017-Nov-17 13:30N 62°07' E 005°25'0 0.3
2017-Nov-17 13:00N 62°07' E 005°25'4 7.5
2017-Nov-17 12:30N 62°11' E 005°25'4 8.9
2017-Nov-17 12:00N 62°12' E 005°34'0 0.0
2017-Nov-17 11:30N 62°12' E 005°34'0 0.0
2017-Nov-17 11:00N 62°12' E 005°34'0 0.0
2017-Nov-17 10:30N 62°12' E 005°34'0 0.0
2017-Nov-17 10:00N 62°12' E 005°34'0 0.0
2017-Nov-17 09:30N 62°12' E 005°34'0 0.0
2017-Nov-17 09:00N 62°12' E 005°34'0 0.0
2017-Nov-17 08:30N 62°12' E 005°34'0 0.0
2017-Nov-17 08:00N 62°12' E 005°34'0 0.0
2017-Nov-17 07:30N 62°12' E 005°34'0 0.0
2017-Nov-17 07:00N 62°12' E 005°34'0 0.0
2017-Nov-17 06:30N 62°12' E 005°34'0 0.0
2017-Nov-17 06:00N 62°12' E 005°34'0 0.0
2017-Nov-17 05:29N 62°12' E 005°34'0 0.0
2017-Nov-17 05:00N 62°12' E 005°34'0 0.0
2017-Nov-17 04:30N 62°12' E 005°34'0 0.0
2017-Nov-17 04:00N 62°12' E 005°34'0 0.0
2017-Nov-17 03:29N 62°12' E 005°34'0 0.0
2017-Nov-17 03:00N 62°12' E 005°34'0 0.0
2017-Nov-17 02:30N 62°12' E 005°34'0 0.0
2017-Nov-17 02:00N 62°12' E 005°34'0 0.0
2017-Nov-17 01:30N 62°12' E 005°34'0 0.0
2017-Nov-17 01:00N 62°12' E 005°34'0 0.0
2017-Nov-17 00:30N 62°12' E 005°34'0 0.0
2017-Nov-17 00:00N 62°12' E 005°34'0 0.0
2017-Nov-16 23:30N 62°12' E 005°34'0 0.0
2017-Nov-16 22:59N 62°12' E 005°34'0 0.0
2017-Nov-16 22:30N 62°12' E 005°34'2 4.7
2017-Nov-16 22:00N 62°11' E 005°39'510.5
2017-Nov-16 21:30N 62°12' E 005°50'510.0
2017-Nov-16 21:00N 62°16' E 005°57'510.1
2017-Nov-16 20:30N 62°20' E 006°05'5 9.2
2017-Nov-16 20:00N 62°24' E 006°03'5 9.2
2017-Nov-16 19:30N 62°28' E 006°05'5 9.1
2017-Nov-16 19:00N 62°29' E 006°15'0 0.0
2017-Nov-16 18:30N 62°29' E 006°15'0 0.0
2017-Nov-16 18:00N 62°29' E 006°15'0 0.0
2017-Nov-16 17:30N 62°29' E 006°15'2 3.6
2017-Nov-16 17:00N 62°29' E 006°12'4 8.5
2017-Nov-16 16:30N 62°33' E 006°10'510.1
2017-Nov-16 16:00N 62°37' E 006°18'510.0
2017-Nov-16 15:30N 62°40' E 006°26'5 9.9
2017-Nov-16 15:00N 62°43' E 006°35'5 9.2
2017-Nov-16 14:30N 62°45' E 006°45'0 1.0
2017-Nov-16 14:00N 62°44' E 006°45'0 0.0
2017-Nov-16 13:30N 62°44' E 006°45'4 7.7
2017-Nov-16 13:00N 62°48' E 006°41'4 8.3
2017-Nov-16 12:31N 62°51' E 006°47'0 0.4
2017-Nov-16 12:00N 62°51' E 006°47'2 5.0
2017-Nov-16 11:30N 62°49' E 006°42'2 3.7
2017-Nov-16 11:00N 62°48' E 006°40'0 0.0
2017-Nov-16 10:30N 62°48' E 006°40'0 0.2
2017-Nov-16 10:00N 62°48' E 006°41'510.2
2017-Nov-16 09:30N 62°44' E 006°34'611.9
2017-Nov-16 09:00N 62°39' E 006°25'612.0
2017-Nov-16 08:30N 62°35' E 006°15'611.7
2017-Nov-16 08:00N 62°30' E 006°09'611.3
2017-Nov-16 07:29N 62°27' E 005°59'611.4
2017-Nov-16 07:00N 62°24' E 005°49'510.5
2017-Nov-16 06:30N 62°19' E 005°43'2 3.2
2017-Nov-16 06:00N 62°19' E 005°39'0 0.0
2017-Nov-16 05:30N 62°19' E 005°39'0 1.0
2017-Nov-16 05:00N 62°19' E 005°39'5 9.7
2017-Nov-16 04:30N 62°16' E 005°31'510.1
2017-Nov-16 04:00N 62°11' E 005°35'510.4
2017-Nov-16 03:30N 62°12' E 005°46'1 1.5
2017-Nov-16 03:00N 62°13' E 005°47'0 0.0
2017-Nov-16 02:30N 62°13' E 005°47'0 0.0
2017-Nov-16 02:00N 62°13' E 005°47'0 0.0
2017-Nov-16 01:30N 62°13' E 005°47'0 0.0
2017-Nov-16 01:00N 62°12' E 005°47'1 1.8
2017-Nov-16 00:29N 62°12' E 005°45'511.0
2017-Nov-16 00:00N 62°11' E 005°34'510.2
2017-Nov-15 23:30N 62°16' E 005°31'510.0
2017-Nov-15 23:00N 62°19' E 005°39'0 0.6
2017-Nov-15 22:30N 62°19' E 005°39'0 0.0
2017-Nov-15 22:00N 62°19' E 005°39'0 0.8
2017-Nov-15 21:30N 62°19' E 005°39'5 9.7
2017-Nov-15 21:00N 62°16' E 005°31'5 9.7
2017-Nov-15 20:30N 62°11' E 005°34'5 9.7
2017-Nov-15 20:00N 62°12' E 005°44'1 2.8
2017-Nov-15 19:30N 62°13' E 005°47'0 0.0
2017-Nov-15 19:00N 62°13' E 005°47'0 0.0
2017-Nov-15 18:30N 62°13' E 005°47'0 0.0
2017-Nov-15 18:00N 62°13' E 005°47'0 0.0
2017-Nov-15 17:30N 62°13' E 005°47'0 0.7
2017-Nov-15 16:59N 62°13' E 005°48'0 0.9
2017-Nov-15 16:30N 62°12' E 005°49'0 0.2
2017-Nov-15 16:00N 62°12' E 005°49'1 2.1
2017-Nov-15 15:30N 62°13' E 005°51'3 6.0
2017-Nov-15 15:00N 62°14' E 005°56'3 6.8
2017-Nov-15 14:30N 62°17' E 006°01'3 5.4
2017-Nov-15 14:00N 62°18' E 006°05'0 0.0
2017-Nov-15 13:29N 62°18' E 006°06'2 3.4
2017-Nov-15 13:00N 62°18' E 006°02'2 3.2
2017-Nov-15 12:30N 62°16' E 006°00'0 0.0
2017-Nov-15 12:00N 62°16' E 006°00'4 8.1
2017-Nov-15 11:30N 62°20' E 006°05'510.1
2017-Nov-15 11:00N 62°25' E 006°03'4 9.0
2017-Nov-15 10:30N 62°29' E 006°08'4 6.9
2017-Nov-15 10:00N 62°32' E 006°09'510.5
2017-Nov-15 09:30N 62°36' E 006°17'5 9.5
2017-Nov-15 09:00N 62°39' E 006°24'510.2
2017-Nov-15 08:29N 62°44' E 006°31'510.3
2017-Nov-15 08:00N 62°48' E 006°37'5 9.7
2017-Nov-15 07:30N 62°51' E 006°45'1 1.3
2017-Nov-15 07:00N 62°51' E 006°47'0 0.0
2017-Nov-15 06:30N 62°51' E 006°47'1 2.6
2017-Nov-15 06:00N 62°50' E 006°44'4 7.9
2017-Nov-15 05:30N 62°46' E 006°42'4 8.4
2017-Nov-15 04:59N 62°46' E 006°52'4 8.3
2017-Nov-15 04:30N 62°43' E 006°59'5 9.1
2017-Nov-15 04:00N 62°44' E 007°09'2 3.1
2017-Nov-15 03:30N 62°43' E 007°06'3 6.5
2017-Nov-15 03:00N 62°40' E 007°09'3 5.1
2017-Nov-15 02:30N 62°38' E 007°11'0 0.0
2017-Nov-15 02:00N 62°38' E 007°11'0 0.0
2017-Nov-15 01:30N 62°38' E 007°11'1 2.6
2017-Nov-15 01:00N 62°39' E 007°10'510.9
2017-Nov-15 00:30N 62°40' E 006°58'611.8
2017-Nov-15 00:00N 62°40' E 006°46'611.5
2017-Nov-14 23:29N 62°38' E 006°33'611.3
2017-Nov-14 22:59N 62°37' E 006°21'510.9
2017-Nov-14 22:30N 62°34' E 006°12'611.4
2017-Nov-14 22:00N 62°29' E 006°06'612.1
2017-Nov-14 21:30N 62°26' E 005°55'611.4
2017-Nov-14 21:00N 62°22' E 005°47'4 8.4
2017-Nov-14 20:30N 62°19' E 005°39'0 0.1
2017-Nov-14 20:00N 62°19' E 005°39'0 0.0
2017-Nov-14 19:30N 62°19' E 005°39'0 0.0
2017-Nov-14 19:00N 62°19' E 005°39'0 0.7
2017-Nov-14 18:31N 62°19' E 005°40'5 9.4
2017-Nov-14 18:00N 62°17' E 005°31'5 9.5
2017-Nov-14 17:30N 62°12' E 005°33'5 9.0
2017-Nov-14 17:00N 62°12' E 005°43'2 4.5
2017-Nov-14 16:30N 62°12' E 005°47'0 0.0
2017-Nov-14 16:00N 62°13' E 005°47'0 0.0
2017-Nov-14 15:30N 62°13' E 005°47'0 0.0
2017-Nov-14 15:00N 62°13' E 005°47'2 4.0
2017-Nov-14 14:30N 62°12' E 005°43'4 8.8
2017-Nov-14 14:00N 62°11' E 005°34'5 9.1
2017-Nov-14 13:30N 62°16' E 005°31'4 8.9
2017-Nov-14 13:00N 62°19' E 005°38'1 2.0
2017-Nov-14 12:30N 62°19' E 005°39'0 0.0
2017-Nov-14 12:00N 62°19' E 005°39'0 0.0
2017-Nov-14 11:30N 62°19' E 005°39'0 0.0
2017-Nov-14 11:00N 62°19' E 005°39'0 0.0
2017-Nov-14 10:30N 62°19' E 005°39'0 0.0
2017-Nov-14 10:00N 62°19' E 005°39'0 0.0
2017-Nov-14 09:30N 62°19' E 005°39'0 0.0
2017-Nov-14 09:00N 62°19' E 005°39'0 0.0
2017-Nov-14 08:30N 62°19' E 005°39'0 0.0
2017-Nov-14 08:00N 62°19' E 005°39'0 0.0
2017-Nov-14 07:30N 62°19' E 005°39'0 0.0
2017-Nov-14 07:00N 62°19' E 005°39'0 0.0
2017-Nov-14 06:30N 62°19' E 005°39'0 0.0
2017-Nov-14 06:00N 62°19' E 005°39'0 0.0
2017-Nov-14 05:30N 62°19' E 005°39'0 0.0
2017-Nov-14 05:00N 62°19' E 005°39'0 0.0
2017-Nov-14 04:30N 62°19' E 005°39'0 0.0
2017-Nov-14 04:00N 62°19' E 005°39'0 0.0
2017-Nov-14 03:30N 62°19' E 005°39'0 0.0
2017-Nov-14 03:00N 62°19' E 005°39'0 0.0
2017-Nov-14 02:30N 62°19' E 005°39'0 0.0
2017-Nov-14 02:00N 62°19' E 005°39'0 0.0
2017-Nov-14 01:30N 62°19' E 005°39'2 3.8
2017-Nov-14 01:00N 62°18' E 005°36'5 9.7
2017-Nov-14 00:30N 62°17' E 005°25'5 9.4
2017-Nov-14 00:00N 62°16' E 005°16'5 9.7
2017-Nov-13 23:30N 62°13' E 005°08'4 8.7
2017-Nov-13 23:00N 62°08' E 005°05'510.0
2017-Nov-13 22:29N 62°04' E 005°08'5 9.9
2017-Nov-13 22:00N 61°59' E 005°09'  

Dump ship's entire track history